sensor_id;sensor_type;location;lat;lon;timestamp;P1;durP1;ratioP1;P2;durP2;ratioP2
61907;SDS011;47864;52.526;19.672;2022-10-16T00:01:34;22.02;;;14.25;;
61907;SDS011;47864;52.526;19.672;2022-10-16T00:03:37;23.27;;;14.95;;
61907;SDS011;47864;52.526;19.672;2022-10-16T00:05:40;19.70;;;14.00;;
61907;SDS011;47864;52.526;19.672;2022-10-16T00:09:45;21.55;;;13.93;;
61907;SDS011;47864;52.526;19.672;2022-10-16T00:11:47;23.15;;;13.95;;
61907;SDS011;47864;52.526;19.672;2022-10-16T00:13:50;22.25;;;14.23;;
61907;SDS011;47864;52.526;19.672;2022-10-16T00:15:56;21.00;;;13.95;;
61907;SDS011;47864;52.526;19.672;2022-10-16T00:17:59;20.98;;;14.63;;
61907;SDS011;47864;52.526;19.672;2022-10-16T00:20:01;21.80;;;14.13;;
61907;SDS011;47864;52.526;19.672;2022-10-16T00:22:03;21.98;;;14.18;;
61907;SDS011;47864;52.526;19.672;2022-10-16T00:24:05;19.13;;;14.00;;
61907;SDS011;47864;52.526;19.672;2022-10-16T00:26:11;19.23;;;14.07;;
61907;SDS011;47864;52.526;19.672;2022-10-16T00:28:18;21.08;;;14.15;;
61907;SDS011;47864;52.526;19.672;2022-10-16T00:30:20;19.73;;;13.88;;
61907;SDS011;47864;52.526;19.672;2022-10-16T00:32:21;20.67;;;13.52;;
61907;SDS011;47864;52.526;19.672;2022-10-16T00:34:24;20.15;;;13.07;;
61907;SDS011;47864;52.526;19.672;2022-10-16T00:36:26;18.65;;;12.70;;
61907;SDS011;47864;52.526;19.672;2022-10-16T00:38:28;20.83;;;12.77;;
61907;SDS011;47864;52.526;19.672;2022-10-16T00:40:29;16.35;;;12.57;;
61907;SDS011;47864;52.526;19.672;2022-10-16T00:42:31;19.40;;;12.90;;
61907;SDS011;47864;52.526;19.672;2022-10-16T00:45:07;29.35;;;12.80;;
61907;SDS011;47864;52.526;19.672;2022-10-16T00:47:01;18.63;;;13.10;;
61907;SDS011;47864;52.526;19.672;2022-10-16T00:49:05;19.50;;;13.52;;
61907;SDS011;47864;52.526;19.672;2022-10-16T00:51:10;16.75;;;12.32;;
61907;SDS011;47864;52.526;19.672;2022-10-16T00:53:12;20.02;;;12.95;;
61907;SDS011;47864;52.526;19.672;2022-10-16T00:55:14;17.52;;;12.48;;
61907;SDS011;47864;52.526;19.672;2022-10-16T00:57:15;21.50;;;12.88;;
61907;SDS011;47864;52.526;19.672;2022-10-16T00:59:19;19.70;;;13.43;;
61907;SDS011;47864;52.526;19.672;2022-10-16T01:01:32;16.63;;;11.77;;
61907;SDS011;47864;52.526;19.672;2022-10-16T01:03:35;19.15;;;13.73;;
61907;SDS011;47864;52.526;19.672;2022-10-16T01:07:55;17.88;;;11.75;;
61907;SDS011;47864;52.526;19.672;2022-10-16T01:16:58;20.70;;;13.60;;
61907;SDS011;47864;52.526;19.672;2022-10-16T01:21:16;17.73;;;12.48;;
61907;SDS011;47864;52.526;19.672;2022-10-16T01:23:50;19.92;;;12.30;;
61907;SDS011;47864;52.526;19.672;2022-10-16T01:26:31;17.52;;;12.90;;
61907;SDS011;47864;52.526;19.672;2022-10-16T01:28:40;18.88;;;11.80;;
61907;SDS011;47864;52.526;19.672;2022-10-16T01:30:43;22.60;;;13.60;;
61907;SDS011;47864;52.526;19.672;2022-10-16T01:32:53;20.45;;;13.05;;
61907;SDS011;47864;52.526;19.672;2022-10-16T01:35:02;25.02;;;14.93;;
61907;SDS011;47864;52.526;19.672;2022-10-16T01:37:09;20.42;;;13.65;;
61907;SDS011;47864;52.526;19.672;2022-10-16T01:39:16;22.58;;;14.70;;
61907;SDS011;47864;52.526;19.672;2022-10-16T01:41:42;25.45;;;15.43;;
61907;SDS011;47864;52.526;19.672;2022-10-16T01:46:01;33.90;;;22.67;;
61907;SDS011;47864;52.526;19.672;2022-10-16T01:48:04;26.90;;;18.85;;
61907;SDS011;47864;52.526;19.672;2022-10-16T01:50:08;24.05;;;16.33;;
61907;SDS011;47864;52.526;19.672;2022-10-16T01:52:11;26.13;;;16.13;;
61907;SDS011;47864;52.526;19.672;2022-10-16T01:54:16;27.20;;;15.52;;
61907;SDS011;47864;52.526;19.672;2022-10-16T01:56:20;24.30;;;14.77;;
61907;SDS011;47864;52.526;19.672;2022-10-16T01:58:24;27.15;;;15.15;;
61907;SDS011;47864;52.526;19.672;2022-10-16T02:00:27;23.50;;;14.88;;
61907;SDS011;47864;52.526;19.672;2022-10-16T02:02:31;25.58;;;15.02;;
61907;SDS011;47864;52.526;19.672;2022-10-16T02:04:36;22.83;;;15.30;;
61907;SDS011;47864;52.526;19.672;2022-10-16T02:06:43;23.67;;;15.15;;
61907;SDS011;47864;52.526;19.672;2022-10-16T02:08:45;21.33;;;14.85;;
61907;SDS011;47864;52.526;19.672;2022-10-16T02:10:48;21.05;;;14.77;;
61907;SDS011;47864;52.526;19.672;2022-10-16T02:12:58;21.20;;;14.23;;
61907;SDS011;47864;52.526;19.672;2022-10-16T02:15:05;21.45;;;14.40;;
61907;SDS011;47864;52.526;19.672;2022-10-16T02:17:12;21.33;;;14.45;;
61907;SDS011;47864;52.526;19.672;2022-10-16T02:19:16;21.92;;;13.77;;
61907;SDS011;47864;52.526;19.672;2022-10-16T02:21:26;25.00;;;15.00;;
61907;SDS011;47864;52.526;19.672;2022-10-16T02:25:56;20.65;;;13.95;;
61907;SDS011;47864;52.526;19.672;2022-10-16T02:28:13;22.02;;;13.70;;
61907;SDS011;47864;52.526;19.672;2022-10-16T02:30:30;23.20;;;14.98;;
61907;SDS011;47864;52.526;19.672;2022-10-16T02:32:35;22.27;;;14.75;;
61907;SDS011;47864;52.526;19.672;2022-10-16T02:34:39;24.35;;;15.80;;
61907;SDS011;47864;52.526;19.672;2022-10-16T02:36:42;23.55;;;15.43;;
61907;SDS011;47864;52.526;19.672;2022-10-16T02:38:46;22.73;;;15.05;;
61907;SDS011;47864;52.526;19.672;2022-10-16T02:40:48;21.40;;;14.93;;
61907;SDS011;47864;52.526;19.672;2022-10-16T02:42:51;25.98;;;16.88;;
61907;SDS011;47864;52.526;19.672;2022-10-16T02:46:55;26.42;;;16.50;;
61907;SDS011;47864;52.526;19.672;2022-10-16T02:48:57;31.55;;;16.83;;
61907;SDS011;47864;52.526;19.672;2022-10-16T02:50:59;26.75;;;16.63;;
61907;SDS011;47864;52.526;19.672;2022-10-16T02:53:01;25.95;;;16.92;;
61907;SDS011;47864;52.526;19.672;2022-10-16T02:55:03;25.15;;;16.60;;
61907;SDS011;47864;52.526;19.672;2022-10-16T02:57:05;24.85;;;17.30;;
61907;SDS011;47864;52.526;19.672;2022-10-16T02:59:07;25.70;;;17.25;;
61907;SDS011;47864;52.526;19.672;2022-10-16T03:01:09;25.10;;;16.85;;
61907;SDS011;47864;52.526;19.672;2022-10-16T03:03:10;24.33;;;16.10;;
61907;SDS011;47864;52.526;19.672;2022-10-16T03:05:12;23.00;;;16.08;;
61907;SDS011;47864;52.526;19.672;2022-10-16T03:07:15;25.00;;;15.25;;
61907;SDS011;47864;52.526;19.672;2022-10-16T03:09:16;23.23;;;16.25;;
61907;SDS011;47864;52.526;19.672;2022-10-16T03:11:18;24.35;;;16.00;;
61907;SDS011;47864;52.526;19.672;2022-10-16T03:13:20;22.45;;;15.50;;
61907;SDS011;47864;52.526;19.672;2022-10-16T03:15:22;23.70;;;15.38;;
61907;SDS011;47864;52.526;19.672;2022-10-16T03:17:24;24.92;;;16.25;;
61907;SDS011;47864;52.526;19.672;2022-10-16T03:19:27;24.65;;;16.40;;
61907;SDS011;47864;52.526;19.672;2022-10-16T03:21:29;25.30;;;16.08;;
61907;SDS011;47864;52.526;19.672;2022-10-16T03:23:31;27.67;;;15.65;;
61907;SDS011;47864;52.526;19.672;2022-10-16T03:25:32;22.20;;;15.15;;
61907;SDS011;47864;52.526;19.672;2022-10-16T03:27:34;22.35;;;15.23;;
61907;SDS011;47864;52.526;19.672;2022-10-16T03:29:36;24.08;;;14.95;;
61907;SDS011;47864;52.526;19.672;2022-10-16T03:31:38;21.90;;;13.90;;
61907;SDS011;47864;52.526;19.672;2022-10-16T03:33:40;22.38;;;14.55;;
61907;SDS011;47864;52.526;19.672;2022-10-16T03:35:42;20.90;;;13.55;;
61907;SDS011;47864;52.526;19.672;2022-10-16T03:37:44;22.17;;;14.45;;
61907;SDS011;47864;52.526;19.672;2022-10-16T03:39:45;19.77;;;13.63;;
61907;SDS011;47864;52.526;19.672;2022-10-16T03:41:47;22.38;;;15.43;;
61907;SDS011;47864;52.526;19.672;2022-10-16T03:43:49;24.60;;;15.88;;
61907;SDS011;47864;52.526;19.672;2022-10-16T03:45:51;20.17;;;14.25;;
61907;SDS011;47864;52.526;19.672;2022-10-16T03:47:53;21.10;;;13.10;;
61907;SDS011;47864;52.526;19.672;2022-10-16T03:49:54;23.20;;;14.02;;
61907;SDS011;47864;52.526;19.672;2022-10-16T03:51:56;19.35;;;12.65;;
61907;SDS011;47864;52.526;19.672;2022-10-16T03:53:58;18.63;;;13.40;;
61907;SDS011;47864;52.526;19.672;2022-10-16T03:56:00;20.25;;;12.85;;
61907;SDS011;47864;52.526;19.672;2022-10-16T03:58:02;19.85;;;12.68;;
61907;SDS011;47864;52.526;19.672;2022-10-16T04:00:04;19.80;;;13.00;;
61907;SDS011;47864;52.526;19.672;2022-10-16T04:02:06;18.40;;;12.68;;
61907;SDS011;47864;52.526;19.672;2022-10-16T04:04:08;18.30;;;12.75;;
61907;SDS011;47864;52.526;19.672;2022-10-16T04:06:10;22.55;;;13.23;;
61907;SDS011;47864;52.526;19.672;2022-10-16T04:08:11;20.88;;;13.90;;
61907;SDS011;47864;52.526;19.672;2022-10-16T04:10:13;23.05;;;13.15;;
61907;SDS011;47864;52.526;19.672;2022-10-16T04:12:15;18.05;;;12.65;;
61907;SDS011;47864;52.526;19.672;2022-10-16T04:14:17;16.83;;;12.05;;
61907;SDS011;47864;52.526;19.672;2022-10-16T04:16:19;18.00;;;12.07;;
61907;SDS011;47864;52.526;19.672;2022-10-16T04:18:20;19.10;;;13.20;;
61907;SDS011;47864;52.526;19.672;2022-10-16T04:20:22;19.95;;;12.32;;
61907;SDS011;47864;52.526;19.672;2022-10-16T04:22:24;19.67;;;12.05;;
61907;SDS011;47864;52.526;19.672;2022-10-16T04:24:31;17.25;;;12.75;;
61907;SDS011;47864;52.526;19.672;2022-10-16T04:26:32;20.95;;;11.90;;
61907;SDS011;47864;52.526;19.672;2022-10-16T04:28:34;22.05;;;11.93;;
61907;SDS011;47864;52.526;19.672;2022-10-16T04:30:39;22.20;;;12.55;;
61907;SDS011;47864;52.526;19.672;2022-10-16T04:32:41;24.40;;;14.95;;
61907;SDS011;47864;52.526;19.672;2022-10-16T04:34:43;21.83;;;13.52;;
61907;SDS011;47864;52.526;19.672;2022-10-16T04:36:46;22.70;;;13.45;;
61907;SDS011;47864;52.526;19.672;2022-10-16T04:38:49;18.38;;;12.45;;
61907;SDS011;47864;52.526;19.672;2022-10-16T04:40:51;18.80;;;12.73;;
61907;SDS011;47864;52.526;19.672;2022-10-16T04:42:53;19.23;;;12.32;;
61907;SDS011;47864;52.526;19.672;2022-10-16T04:44:55;18.70;;;12.85;;
61907;SDS011;47864;52.526;19.672;2022-10-16T04:46:57;18.27;;;12.90;;
61907;SDS011;47864;52.526;19.672;2022-10-16T04:48:58;19.52;;;13.20;;
61907;SDS011;47864;52.526;19.672;2022-10-16T04:51:00;20.10;;;13.32;;
61907;SDS011;47864;52.526;19.672;2022-10-16T04:53:02;19.70;;;12.90;;
61907;SDS011;47864;52.526;19.672;2022-10-16T04:55:04;17.67;;;12.63;;
61907;SDS011;47864;52.526;19.672;2022-10-16T04:57:06;18.27;;;12.98;;
61907;SDS011;47864;52.526;19.672;2022-10-16T04:59:08;21.77;;;13.35;;
61907;SDS011;47864;52.526;19.672;2022-10-16T05:01:10;24.27;;;14.70;;
61907;SDS011;47864;52.526;19.672;2022-10-16T05:03:12;18.95;;;12.98;;
61907;SDS011;47864;52.526;19.672;2022-10-16T05:05:15;19.73;;;11.60;;
61907;SDS011;47864;52.526;19.672;2022-10-16T05:07:17;18.80;;;13.20;;
61907;SDS011;47864;52.526;19.672;2022-10-16T05:09:18;22.58;;;13.00;;
61907;SDS011;47864;52.526;19.672;2022-10-16T05:11:21;23.73;;;13.80;;
61907;SDS011;47864;52.526;19.672;2022-10-16T05:13:22;20.67;;;12.50;;
61907;SDS011;47864;52.526;19.672;2022-10-16T05:15:24;18.05;;;12.35;;
61907;SDS011;47864;52.526;19.672;2022-10-16T05:17:26;19.15;;;12.07;;
61907;SDS011;47864;52.526;19.672;2022-10-16T05:19:28;20.40;;;12.70;;
61907;SDS011;47864;52.526;19.672;2022-10-16T05:21:30;18.95;;;12.93;;
61907;SDS011;47864;52.526;19.672;2022-10-16T05:23:32;19.65;;;13.10;;
61907;SDS011;47864;52.526;19.672;2022-10-16T05:25:34;22.63;;;14.48;;
61907;SDS011;47864;52.526;19.672;2022-10-16T05:27:36;19.05;;;13.18;;
61907;SDS011;47864;52.526;19.672;2022-10-16T05:29:37;22.52;;;13.52;;
61907;SDS011;47864;52.526;19.672;2022-10-16T05:31:39;22.58;;;13.35;;
61907;SDS011;47864;52.526;19.672;2022-10-16T05:33:41;21.00;;;13.65;;
61907;SDS011;47864;52.526;19.672;2022-10-16T05:35:43;21.10;;;14.25;;
61907;SDS011;47864;52.526;19.672;2022-10-16T05:37:45;20.77;;;14.48;;
61907;SDS011;47864;52.526;19.672;2022-10-16T05:39:47;21.25;;;14.38;;
61907;SDS011;47864;52.526;19.672;2022-10-16T05:41:49;21.65;;;13.98;;
61907;SDS011;47864;52.526;19.672;2022-10-16T05:43:51;21.30;;;13.30;;
61907;SDS011;47864;52.526;19.672;2022-10-16T05:45:57;18.30;;;13.40;;
61907;SDS011;47864;52.526;19.672;2022-10-16T05:48:01;19.20;;;13.20;;
61907;SDS011;47864;52.526;19.672;2022-10-16T05:50:03;21.60;;;14.35;;
61907;SDS011;47864;52.526;19.672;2022-10-16T05:52:05;19.95;;;13.52;;
61907;SDS011;47864;52.526;19.672;2022-10-16T05:54:07;19.42;;;12.65;;
61907;SDS011;47864;52.526;19.672;2022-10-16T05:56:10;21.58;;;13.98;;
61907;SDS011;47864;52.526;19.672;2022-10-16T05:58:12;23.05;;;15.23;;
61907;SDS011;47864;52.526;19.672;2022-10-16T06:00:14;19.83;;;13.38;;
61907;SDS011;47864;52.526;19.672;2022-10-16T06:02:15;23.23;;;13.70;;
61907;SDS011;47864;52.526;19.672;2022-10-16T06:04:17;19.85;;;13.35;;
61907;SDS011;47864;52.526;19.672;2022-10-16T06:06:20;23.30;;;13.30;;
61907;SDS011;47864;52.526;19.672;2022-10-16T06:08:23;19.05;;;12.88;;
61907;SDS011;47864;52.526;19.672;2022-10-16T06:10:25;17.70;;;12.52;;
61907;SDS011;47864;52.526;19.672;2022-10-16T06:12:27;21.30;;;12.68;;
61907;SDS011;47864;52.526;19.672;2022-10-16T06:14:29;21.55;;;13.68;;
61907;SDS011;47864;52.526;19.672;2022-10-16T06:16:30;19.70;;;13.82;;
61907;SDS011;47864;52.526;19.672;2022-10-16T06:18:32;20.88;;;13.90;;
61907;SDS011;47864;52.526;19.672;2022-10-16T06:20:34;20.25;;;13.73;;
61907;SDS011;47864;52.526;19.672;2022-10-16T06:22:36;21.60;;;13.98;;
61907;SDS011;47864;52.526;19.672;2022-10-16T06:24:39;20.90;;;13.88;;
61907;SDS011;47864;52.526;19.672;2022-10-16T06:26:40;21.67;;;13.98;;
61907;SDS011;47864;52.526;19.672;2022-10-16T06:28:42;22.90;;;14.40;;
61907;SDS011;47864;52.526;19.672;2022-10-16T06:30:44;20.02;;;13.48;;
61907;SDS011;47864;52.526;19.672;2022-10-16T06:32:46;21.77;;;14.45;;
61907;SDS011;47864;52.526;19.672;2022-10-16T06:34:48;22.63;;;13.80;;
61907;SDS011;47864;52.526;19.672;2022-10-16T06:36:50;20.67;;;13.32;;
61907;SDS011;47864;52.526;19.672;2022-10-16T06:38:51;20.35;;;13.05;;
61907;SDS011;47864;52.526;19.672;2022-10-16T06:40:53;22.88;;;12.65;;
61907;SDS011;47864;52.526;19.672;2022-10-16T06:42:55;19.92;;;12.52;;
61907;SDS011;47864;52.526;19.672;2022-10-16T06:44:57;20.10;;;12.85;;
61907;SDS011;47864;52.526;19.672;2022-10-16T06:46:58;18.30;;;13.27;;
61907;SDS011;47864;52.526;19.672;2022-10-16T06:49:01;21.80;;;13.23;;
61907;SDS011;47864;52.526;19.672;2022-10-16T06:51:04;16.90;;;12.23;;
61907;SDS011;47864;52.526;19.672;2022-10-16T06:53:08;19.42;;;12.35;;
61907;SDS011;47864;52.526;19.672;2022-10-16T06:55:10;19.10;;;12.27;;
61907;SDS011;47864;52.526;19.672;2022-10-16T06:57:12;18.70;;;11.70;;
61907;SDS011;47864;52.526;19.672;2022-10-16T06:59:13;19.80;;;12.48;;
61907;SDS011;47864;52.526;19.672;2022-10-16T07:01:16;21.92;;;12.57;;
61907;SDS011;47864;52.526;19.672;2022-10-16T07:03:19;16.85;;;12.18;;
61907;SDS011;47864;52.526;19.672;2022-10-16T07:05:20;16.63;;;11.25;;
61907;SDS011;47864;52.526;19.672;2022-10-16T07:07:22;16.55;;;11.52;;
61907;SDS011;47864;52.526;19.672;2022-10-16T07:09:24;17.80;;;12.23;;
61907;SDS011;47864;52.526;19.672;2022-10-16T07:11:26;21.23;;;11.82;;
61907;SDS011;47864;52.526;19.672;2022-10-16T07:13:28;22.33;;;12.38;;
61907;SDS011;47864;52.526;19.672;2022-10-16T07:15:30;19.90;;;11.70;;
61907;SDS011;47864;52.526;19.672;2022-10-16T07:17:32;20.77;;;11.95;;
61907;SDS011;47864;52.526;19.672;2022-10-16T07:19:34;19.52;;;11.82;;
61907;SDS011;47864;52.526;19.672;2022-10-16T07:21:35;19.35;;;11.88;;
61907;SDS011;47864;52.526;19.672;2022-10-16T07:23:37;20.52;;;11.38;;
61907;SDS011;47864;52.526;19.672;2022-10-16T07:25:39;17.75;;;11.65;;
61907;SDS011;47864;52.526;19.672;2022-10-16T07:27:41;20.75;;;11.90;;
61907;SDS011;47864;52.526;19.672;2022-10-16T07:29:43;19.77;;;13.18;;
61907;SDS011;47864;52.526;19.672;2022-10-16T07:31:45;18.73;;;12.40;;
61907;SDS011;47864;52.526;19.672;2022-10-16T07:33:48;22.65;;;12.85;;
61907;SDS011;47864;52.526;19.672;2022-10-16T07:35:50;18.00;;;10.88;;
61907;SDS011;47864;52.526;19.672;2022-10-16T07:37:53;20.48;;;11.85;;
61907;SDS011;47864;52.526;19.672;2022-10-16T07:39:55;15.50;;;11.25;;
61907;SDS011;47864;52.526;19.672;2022-10-16T07:41:57;17.77;;;12.13;;
61907;SDS011;47864;52.526;19.672;2022-10-16T07:43:58;22.88;;;11.60;;
61907;SDS011;47864;52.526;19.672;2022-10-16T07:46:00;17.83;;;10.98;;
61907;SDS011;47864;52.526;19.672;2022-10-16T07:48:06;18.70;;;11.90;;
61907;SDS011;47864;52.526;19.672;2022-10-16T07:50:08;16.92;;;10.63;;
61907;SDS011;47864;52.526;19.672;2022-10-16T07:52:10;20.60;;;12.68;;
61907;SDS011;47864;52.526;19.672;2022-10-16T07:54:12;17.42;;;11.95;;
61907;SDS011;47864;52.526;19.672;2022-10-16T07:56:14;19.42;;;12.07;;
61907;SDS011;47864;52.526;19.672;2022-10-16T07:58:17;18.27;;;12.20;;
61907;SDS011;47864;52.526;19.672;2022-10-16T08:00:19;16.98;;;11.48;;
61907;SDS011;47864;52.526;19.672;2022-10-16T08:02:21;20.58;;;12.93;;
61907;SDS011;47864;52.526;19.672;2022-10-16T08:04:22;22.23;;;12.88;;
61907;SDS011;47864;52.526;19.672;2022-10-16T08:06:24;19.77;;;12.90;;
61907;SDS011;47864;52.526;19.672;2022-10-16T08:08:28;19.83;;;12.45;;
61907;SDS011;47864;52.526;19.672;2022-10-16T08:10:30;18.13;;;12.80;;
61907;SDS011;47864;52.526;19.672;2022-10-16T08:12:31;19.65;;;12.82;;
61907;SDS011;47864;52.526;19.672;2022-10-16T08:14:33;18.30;;;12.15;;
61907;SDS011;47864;52.526;19.672;2022-10-16T08:16:35;20.92;;;13.02;;
61907;SDS011;47864;52.526;19.672;2022-10-16T08:18:38;22.23;;;13.05;;
61907;SDS011;47864;52.526;19.672;2022-10-16T08:20:41;19.42;;;12.18;;
61907;SDS011;47864;52.526;19.672;2022-10-16T08:22:44;17.75;;;12.40;;
61907;SDS011;47864;52.526;19.672;2022-10-16T08:24:46;20.08;;;12.63;;
61907;SDS011;47864;52.526;19.672;2022-10-16T08:26:48;19.02;;;12.25;;
61907;SDS011;47864;52.526;19.672;2022-10-16T08:28:50;19.45;;;12.27;;
61907;SDS011;47864;52.526;19.672;2022-10-16T08:30:52;22.35;;;13.02;;
61907;SDS011;47864;52.526;19.672;2022-10-16T08:32:53;19.88;;;11.75;;
61907;SDS011;47864;52.526;19.672;2022-10-16T08:34:56;17.98;;;12.40;;
61907;SDS011;47864;52.526;19.672;2022-10-16T08:36:57;21.58;;;14.13;;
61907;SDS011;47864;52.526;19.672;2022-10-16T08:38:59;18.88;;;12.15;;
61907;SDS011;47864;52.526;19.672;2022-10-16T08:47:02;17.33;;;12.23;;
61907;SDS011;47864;52.526;19.672;2022-10-16T08:49:15;20.88;;;11.82;;
61907;SDS011;47864;52.526;19.672;2022-10-16T08:51:22;19.83;;;11.90;;
61907;SDS011;47864;52.526;19.672;2022-10-16T08:53:28;20.67;;;12.07;;
61907;SDS011;47864;52.526;19.672;2022-10-16T08:55:41;18.33;;;11.80;;
61907;SDS011;47864;52.526;19.672;2022-10-16T08:57:46;17.40;;;11.52;;
61907;SDS011;47864;52.526;19.672;2022-10-16T08:59:47;18.35;;;11.60;;
61907;SDS011;47864;52.526;19.672;2022-10-16T09:01:50;18.00;;;11.73;;
61907;SDS011;47864;52.526;19.672;2022-10-16T09:06:18;20.75;;;12.48;;
61907;SDS011;47864;52.526;19.672;2022-10-16T09:08:42;20.23;;;12.32;;
61907;SDS011;47864;52.526;19.672;2022-10-16T09:10:55;20.98;;;12.98;;
61907;SDS011;47864;52.526;19.672;2022-10-16T09:17:36;20.42;;;12.20;;
61907;SDS011;47864;52.526;19.672;2022-10-16T09:19:46;22.70;;;12.63;;
61907;SDS011;47864;52.526;19.672;2022-10-16T09:21:54;17.00;;;11.93;;
61907;SDS011;47864;52.526;19.672;2022-10-16T09:23:58;17.65;;;11.02;;
61907;SDS011;47864;52.526;19.672;2022-10-16T09:26:13;20.10;;;12.10;;
61907;SDS011;47864;52.526;19.672;2022-10-16T09:28:17;17.92;;;11.38;;
61907;SDS011;47864;52.526;19.672;2022-10-16T09:30:20;15.82;;;10.43;;
61907;SDS011;47864;52.526;19.672;2022-10-16T09:32:23;19.33;;;12.35;;
61907;SDS011;47864;52.526;19.672;2022-10-16T09:36:41;17.70;;;11.20;;
61907;SDS011;47864;52.526;19.672;2022-10-16T09:38:46;15.30;;;10.98;;
61907;SDS011;47864;52.526;19.672;2022-10-16T09:40:48;15.48;;;10.15;;
61907;SDS011;47864;52.526;19.672;2022-10-16T09:45:28;17.88;;;10.98;;
61907;SDS011;47864;52.526;19.672;2022-10-16T09:47:30;17.70;;;11.32;;
61907;SDS011;47864;52.526;19.672;2022-10-16T09:49:33;18.10;;;11.10;;
61907;SDS011;47864;52.526;19.672;2022-10-16T09:51:35;15.15;;;10.20;;
61907;SDS011;47864;52.526;19.672;2022-10-16T09:53:39;14.15;;;9.48;;
61907;SDS011;47864;52.526;19.672;2022-10-16T09:55:50;15.43;;;11.23;;
61907;SDS011;47864;52.526;19.672;2022-10-16T09:57:55;17.73;;;10.50;;
61907;SDS011;47864;52.526;19.672;2022-10-16T09:59:57;16.25;;;10.45;;
61907;SDS011;47864;52.526;19.672;2022-10-16T10:02:03;14.88;;;10.65;;
61907;SDS011;47864;52.526;19.672;2022-10-16T10:04:12;14.60;;;10.40;;
61907;SDS011;47864;52.526;19.672;2022-10-16T10:06:22;19.80;;;11.43;;
61907;SDS011;47864;52.526;19.672;2022-10-16T10:08:26;15.02;;;9.98;;
61907;SDS011;47864;52.526;19.672;2022-10-16T10:10:29;14.10;;;10.38;;
61907;SDS011;47864;52.526;19.672;2022-10-16T10:12:33;16.58;;;10.68;;
61907;SDS011;47864;52.526;19.672;2022-10-16T10:14:37;14.90;;;11.05;;
61907;SDS011;47864;52.526;19.672;2022-10-16T10:16:39;15.15;;;9.88;;
61907;SDS011;47864;52.526;19.672;2022-10-16T10:18:41;18.67;;;11.13;;
61907;SDS011;47864;52.526;19.672;2022-10-16T10:20:43;17.25;;;9.63;;
61907;SDS011;47864;52.526;19.672;2022-10-16T10:22:45;16.50;;;11.32;;
61907;SDS011;47864;52.526;19.672;2022-10-16T10:27:15;13.77;;;9.48;;
61907;SDS011;47864;52.526;19.672;2022-10-16T10:30:02;16.58;;;9.43;;
61907;SDS011;47864;52.526;19.672;2022-10-16T10:34:55;16.33;;;9.68;;
61907;SDS011;47864;52.526;19.672;2022-10-16T10:36:40;13.07;;;9.45;;
61907;SDS011;47864;52.526;19.672;2022-10-16T10:41:29;14.00;;;9.52;;
61907;SDS011;47864;52.526;19.672;2022-10-16T10:46:02;14.68;;;9.50;;
61907;SDS011;47864;52.526;19.672;2022-10-16T10:55:28;12.88;;;8.50;;
61907;SDS011;47864;52.526;19.672;2022-10-16T10:57:57;13.93;;;8.82;;
61907;SDS011;47864;52.526;19.672;2022-10-16T11:00:21;15.32;;;8.55;;
61907;SDS011;47864;52.526;19.672;2022-10-16T11:02:45;14.43;;;8.52;;
61907;SDS011;47864;52.526;19.672;2022-10-16T11:07:23;13.77;;;8.48;;
61907;SDS011;47864;52.526;19.672;2022-10-16T11:09:31;15.20;;;9.43;;
61907;SDS011;47864;52.526;19.672;2022-10-16T11:14:23;16.02;;;8.88;;
61907;SDS011;47864;52.526;19.672;2022-10-16T11:16:45;11.75;;;8.52;;
61907;SDS011;47864;52.526;19.672;2022-10-16T11:21:14;13.32;;;8.25;;
61907;SDS011;47864;52.526;19.672;2022-10-16T11:23:28;13.20;;;8.77;;
61907;SDS011;47864;52.526;19.672;2022-10-16T11:25:35;14.65;;;8.27;;
61907;SDS011;47864;52.526;19.672;2022-10-16T11:30:04;12.60;;;8.73;;
61907;SDS011;47864;52.526;19.672;2022-10-16T11:32:19;12.23;;;8.38;;
61907;SDS011;47864;52.526;19.672;2022-10-16T11:34:47;11.32;;;7.72;;
61907;SDS011;47864;52.526;19.672;2022-10-16T11:39:28;14.80;;;7.55;;
61907;SDS011;47864;52.526;19.672;2022-10-16T11:41:35;11.50;;;7.57;;
61907;SDS011;47864;52.526;19.672;2022-10-16T11:43:45;14.63;;;8.40;;
61907;SDS011;47864;52.526;19.672;2022-10-16T11:46:12;9.45;;;7.10;;
61907;SDS011;47864;52.526;19.672;2022-10-16T11:48:23;15.18;;;8.07;;
61907;SDS011;47864;52.526;19.672;2022-10-16T11:55:44;12.75;;;7.75;;
61907;SDS011;47864;52.526;19.672;2022-10-16T11:57:49;14.10;;;8.43;;
61907;SDS011;47864;52.526;19.672;2022-10-16T12:04:54;14.63;;;8.90;;
61907;SDS011;47864;52.526;19.672;2022-10-16T12:07:24;13.25;;;9.20;;
61907;SDS011;47864;52.526;19.672;2022-10-16T12:09:35;11.88;;;8.85;;
61907;SDS011;47864;52.526;19.672;2022-10-16T12:11:40;11.68;;;8.30;;
61907;SDS011;47864;52.526;19.672;2022-10-16T12:13:42;13.27;;;8.55;;
61907;SDS011;47864;52.526;19.672;2022-10-16T12:15:44;12.65;;;8.38;;
61907;SDS011;47864;52.526;19.672;2022-10-16T12:18:01;13.63;;;8.45;;
61907;SDS011;47864;52.526;19.672;2022-10-16T12:22:16;11.98;;;8.18;;
61907;SDS011;47864;52.526;19.672;2022-10-16T12:24:39;14.32;;;8.75;;
61907;SDS011;47864;52.526;19.672;2022-10-16T12:26:44;14.20;;;8.70;;
61907;SDS011;47864;52.526;19.672;2022-10-16T12:28:47;13.13;;;8.40;;
61907;SDS011;47864;52.526;19.672;2022-10-16T12:31:02;12.20;;;8.68;;
61907;SDS011;47864;52.526;19.672;2022-10-16T12:35:53;12.75;;;8.73;;
61907;SDS011;47864;52.526;19.672;2022-10-16T12:40:34;14.10;;;8.55;;
61907;SDS011;47864;52.526;19.672;2022-10-16T12:42:38;12.50;;;8.88;;
61907;SDS011;47864;52.526;19.672;2022-10-16T12:44:40;12.20;;;7.93;;
61907;SDS011;47864;52.526;19.672;2022-10-16T12:46:42;14.18;;;8.85;;
61907;SDS011;47864;52.526;19.672;2022-10-16T12:48:44;12.60;;;9.10;;
61907;SDS011;47864;52.526;19.672;2022-10-16T12:51:10;12.32;;;8.93;;
61907;SDS011;47864;52.526;19.672;2022-10-16T12:53:30;11.30;;;8.20;;
61907;SDS011;47864;52.526;19.672;2022-10-16T12:55:34;14.60;;;9.13;;
61907;SDS011;47864;52.526;19.672;2022-10-16T13:00:13;12.30;;;8.50;;
61907;SDS011;47864;52.526;19.672;2022-10-16T13:14:21;12.20;;;8.13;;
61907;SDS011;47864;52.526;19.672;2022-10-16T13:16:43;12.35;;;8.43;;
61907;SDS011;47864;52.526;19.672;2022-10-16T13:26:17;14.00;;;9.77;;
61907;SDS011;47864;52.526;19.672;2022-10-16T13:28:22;15.30;;;8.98;;
61907;SDS011;47864;52.526;19.672;2022-10-16T13:30:30;12.30;;;8.73;;
61907;SDS011;47864;52.526;19.672;2022-10-16T13:32:43;13.68;;;8.75;;
61907;SDS011;47864;52.526;19.672;2022-10-16T13:34:48;14.73;;;9.43;;
61907;SDS011;47864;52.526;19.672;2022-10-16T13:36:51;13.30;;;9.40;;
61907;SDS011;47864;52.526;19.672;2022-10-16T13:41:17;15.35;;;9.43;;
61907;SDS011;47864;52.526;19.672;2022-10-16T13:43:19;13.00;;;8.77;;
61907;SDS011;47864;52.526;19.672;2022-10-16T13:45:24;14.80;;;8.65;;
61907;SDS011;47864;52.526;19.672;2022-10-16T13:47:28;19.55;;;12.32;;
61907;SDS011;47864;52.526;19.672;2022-10-16T13:49:31;15.05;;;11.65;;
61907;SDS011;47864;52.526;19.672;2022-10-16T13:51:33;13.32;;;9.00;;